Cuba, New York
Current Conditions -  °F | °C
As of 9:35 PM on Wednesday 17 Dec 2014 (Local Time) from KOLE Reporting Station
Light Snow Light Snow  
Wind Chill: 19°   Ceiling: 900
Heat Index: 27°   Visibility: 7mi
Dew Point: 27°   Wind: 7mph
Humidity: 100%   Direction: 260°W
Pressure: 29.93"   Gusts: 17mph
Location:  42.22°N, 78.28°W
Report Text: KOLE 180235Z AUTO 26006G15KT 7SM -SN BKN009 OVC014 M03/M03 A2993 RMK AO2
Loading
Personal Weather Stations






























Interactive Weather Map New forecast layout! Learn more

10-Day Weather Forecast

Advertisements
Track Severe Weather on mobile